Flight Track Log - Related Links

Times and Time Zones

All times are in EDT time to prevent confusion due to time zone crossing. See the N18373 flight status page for this flight to view local times or setup timezone preferences in your user account.

Time Position Orientation Groundspeed Altitude Reporting Facility
EDT Latitude Longitude Course Direction KTS MPH feet Rate Location/Type
Fri 08:44:00 AM 32.4714 -80.5643 23° Northeast  Level FlightAware Approximate
Fri 08:45:00 AM 32.5134 -80.5433 23° Northeast  Level FlightAware Approximate
Fri 08:46:00 AM 32.5555 -80.5223 23° Northeast  Level FlightAware Approximate
Fri 08:47:00 AM 32.5976 -80.5013 23° Northeast  Level FlightAware Approximate
Fri 08:48:00 AM 32.6396 -80.4802 23° Northeast  Level FlightAware Approximate
Fri 08:49:00 AM 32.6816 -80.4588 24° Northeast  Level FlightAware Approximate
Fri 08:50:00 AM 32.7232 -80.4367 24° Northeast  Level FlightAware Approximate
Fri 08:51:00 AM 32.7649 -80.4145 24° Northeast  Level FlightAware Approximate
Fri 08:52:00 AM 32.8066 -80.3923 24° Northeast  Level FlightAware Approximate
Fri 08:53:00 AM 32.8483 -80.3702 24° Northeast  Level FlightAware Approximate
Fri 08:54:00 AM 32.8899 -80.3480 24° Northeast  Level FlightAware Approximate
Fri 08:55:00 AM 32.9316 -80.3258 24° Northeast  Level FlightAware Approximate
Fri 08:56:00 AM 32.9733 -80.3035 24° Northeast  Level FlightAware Approximate
Fri 08:57:00 AM 33.0149 -80.2812 24° Northeast  Level FlightAware Approximate
Fri 08:58:00 AM 33.0566 -80.2590 24° Northeast  Level FlightAware Approximate
Fri 08:59:00 AM 33.0982 -80.2366 24° Northeast  Level FlightAware Approximate
Fri 09:00:00 AM 33.1399 -80.2143 24° Northeast  Level FlightAware Approximate
Fri 09:01:00 AM 33.1815 -80.1920 24° Northeast  Level FlightAware Approximate
Fri 09:02:00 AM 33.2231 -80.1696 24° Northeast  Level FlightAware Approximate
Fri 09:03:00 AM 33.2648 -80.1472 24° Northeast  Level FlightAware Approximate
Fri 09:04:00 AM 33.3064 -80.1248 24° Northeast  Level FlightAware Approximate
Fri 09:05:00 AM 33.3480 -80.1024 24° Northeast  Level FlightAware Approximate
Fri 09:06:00 AM 33.3898 -80.0801 23° Northeast  Level FlightAware Approximate
Fri 09:07:00 AM 33.4319 -80.0592 23° Northeast  Level FlightAware Approximate
Fri 09:08:00 AM 33.4741 -80.0382 23° Northeast  Level FlightAware Approximate
Fri 09:09:00 AM 33.5162 -80.0172 23° Northeast  Level FlightAware Approximate
Fri 09:10:00 AM 33.5584 -79.9961 23° Northeast  Level FlightAware Approximate
Fri 09:11:00 AM 33.6005 -79.9751 23° Northeast  Level FlightAware Approximate
Fri 09:12:00 AM 33.6427 -79.9540 23° Northeast  Level FlightAware Approximate
Fri 09:13:00 AM 33.6848 -79.9329 23° Northeast  Level FlightAware Approximate
Fri 09:14:00 AM 33.7269 -79.9118 23° Northeast  Level FlightAware Approximate
Fri 09:15:00 AM 33.7691 -79.8907 23° Northeast  Level FlightAware Approximate
Fri 09:16:00 AM 33.8112 -79.8695 23° Northeast  Level FlightAware Approximate
Fri 09:17:00 AM 33.8533 -79.8482 24° Northeast  Level FlightAware Approximate
Fri 09:18:00 AM 33.8949 -79.8256 24° Northeast  Level FlightAware Approximate
Fri 09:19:00 AM 33.9365 -79.8030 24° Northeast  Level FlightAware Approximate
Fri 09:20:00 AM 33.9781 -79.7803 24° Northeast  Level FlightAware Approximate
Fri 09:21:00 AM 34.0197 -79.7577 24° Northeast  Level FlightAware Approximate
Fri 09:22:00 AM 34.0613 -79.7350 24° Northeast  Level FlightAware Approximate
Fri 09:23:00 AM 34.1029 -79.7122 24° Northeast  Level FlightAware Approximate
Fri 09:24:00 AM 34.1445 -79.6895 24° Northeast  Level FlightAware Approximate
Fri 09:25:00 AM 34.1861 -79.6667 24° Northeast  Level FlightAware Approximate
Fri 09:26:00 AM 34.2285 -79.6468 13° North  Level FlightAware Approximate
Fri 09:27:00 AM 34.2730 -79.6347 13° North  Level FlightAware Approximate
Fri 09:28:00 AM 34.3175 -79.6226 13° North  Level FlightAware Approximate
Fri 09:29:00 AM 34.3621 -79.6105 13° North  Level FlightAware Approximate
Fri 09:30:00 AM 34.4066 -79.5983 13° North  Level FlightAware Approximate
Fri 09:30:29 AM 34.5492 -79.5936 14° North 177 204 9,100  Level Washington Center
Fri 09:31:00 AM 34.4511 -79.5862 13° North  Level FlightAware Approximate
Fri 09:32:00 AM 34.6157 -79.5706 16° North  Level FlightAware Approximate
Fri 09:32:00 AM 34.4957 -79.5740 13° North  Level FlightAware Approximate
Fri 09:33:00 AM 34.5402 -79.5618 13° North  Level FlightAware Approximate
Fri 09:33:41 AM 34.7047 -79.5633 16° North 178 205 9,000  Level Washington Center
Fri 09:37:16 AM 34.8811 -79.5314 17° North 179 206 9,000  Level Washington Center
Fri 09:41:43 AM 35.0953 -79.4886 20° North 183 211 9,000  Level Washington Center
Fri 09:45:44 AM 35.2875 -79.4139 19° North 181 208 9,000 22 Level Washington Center
Fri 09:46:00 AM 35.2571 -79.3704 20° North  Level FlightAware Approximate
Fri 09:46:17 AM 35.3128 -79.4050 16° North 181 208 9,100  Level Washington Center
Fri 09:47:00 AM 35.2998 -79.3508 20° North  Level FlightAware Approximate
Fri 09:47:11 AM 35.3572 -79.3919 13° North 181 208 9,000  Level Washington Center
Fri 09:48:12 AM 35.4058 -79.3711 19° North 181 208 9,100 -50 Climbing Washington Center
Fri 09:49:10 AM 35.4542 -79.3531 17° North 179 206 8,900 -109 Descending Washington Center
Fri 09:50:00 AM 35.4603 -79.3677 15° North  Level Estimated
Fri 09:50:02 AM 35.4942 -79.3422 12° North 190 219 8,900  Level Washington Center
Fri 09:51:00 AM 35.5034 -79.3493 19° North  Level FlightAware Approximate
Fri 09:51:03 AM 35.5428 -79.3242 17° North 180 207 8,900  Level Washington Center
Fri 09:52:03 AM 35.5894 -79.3033 20° North 177 204 8,900  Level Washington Center
Fri 09:53:04 AM 35.6358 -79.2875 16° North 167 192 8,900  Level Washington Center
Fri 09:54:03 AM 35.6842 -79.2744 12° North 177 204 8,900  Level Washington Center
Fri 09:55:03 AM 35.7328 -79.2561 17° North 176 203 8,900  Level Washington Center
Fri 09:55:58 AM 35.7731 -79.2375 21° North 177 204 8,900  Level Washington Center
Fri 09:57:05 AM 35.8278 -79.2169 17° North 176 203 8,900  Level Washington Center
Fri 09:58:05 AM 35.8742 -79.2011 15° North 176 203 8,900  Level Washington Center
Fri 09:59:07 AM 35.9228 -79.1856 15° North 174 200 8,900 49 Level Washington Center
Fri 10:00:08 AM 35.9736 -79.1594 23° Northeast 171 197 9,000 49 Climbing Washington Center
Fri 10:01:09 AM 36.0178 -79.1461 14° North 170 196 9,000  Level Washington Center
Fri 10:02:09 AM 36.0642 -79.1303 15° North 197 227 9,000  Level Washington Center
Fri 10:03:07 AM 36.1064 -79.1142 17° North 190 219 9,000  Level Washington Center
Fri 10:04:08 AM 36.1550 -79.0931 19° North 179 206 9,000  Level Washington Center
Fri 10:05:09 AM 36.1992 -79.0797 14° North 174 200 9,000  Level Washington Center
Fri 10:06:07 AM 36.2497 -79.0614 16° North 169 194 9,000  Level Washington Center
Fri 10:07:08 AM 36.2919 -79.0453 17° North 169 194 9,000 49 Level Washington Center
Fri 10:08:09 AM 36.3425 -79.0267 17° North 169 194 9,100  Climbing Washington Center
Fri 10:09:09 AM 36.3869 -79.0106 16° North 169 194 9,000 -51 Descending Washington Center
Fri 10:10:07 AM 36.4331 -78.9972 13° North 169 194 9,000  Level Washington Center
Fri 10:11:08 AM 36.4775 -78.9811 16° North 164 189 9,000  Level Washington Center
Fri 10:12:09 AM 36.5281 -78.9600 19° North 164 189 9,000  Level Washington Center
Fri 10:13:07 AM 36.5722 -78.9464 14° North 164 189 9,000  Level Washington Center
Fri 10:14:08 AM 36.6208 -78.9278 17° North 164 189 9,000  Level Washington Center
Fri 10:15:08 AM 36.6756 -78.9042 19° North 164 189 9,000  Level Washington Center
Fri 10:16:07 AM 36.7200 -78.8853 19° North 169 194 9,000  Level Washington Center
Fri 10:17:07 AM 36.7706 -78.8667 16° North 169 194 9,000  Level Washington Center
Fri 10:18:08 AM 36.8147 -78.8506 16° North 169 194 9,000  Level Washington Center
Fri 10:19:09 AM 36.8614 -78.8317 18° North 169 194 9,000 50 Level Washington Center
Fri 10:20:09 AM 36.9097 -78.8156 15° North 169 194 9,100 50 Climbing Washington Center
Fri 10:21:09 AM 36.9561 -78.7967 18° North 169 194 9,100  Level Washington Center
Fri 10:22:07 AM 37.0025 -78.7803 16° North 169 194 9,100  Level Washington Center
Fri 10:23:08 AM 37.0489 -78.7614 18° North 169 194 9,100 -49 Level Washington Center
Fri 10:24:09 AM 37.0972 -78.7428 17° North 169 194 9,000 -50 Descending Washington Center
Fri 10:25:09 AM 37.1458 -78.7264 15° North 169 194 9,000  Level Washington Center
Fri 10:26:06 AM 37.1900 -78.7100 16° North 169 194 9,000  Level Washington Center
Fri 10:27:07 AM 37.2383 -78.6911 17° North 164 189 9,000 49 Level Washington Center
Fri 10:28:08 AM 37.2869 -78.6747 15° North 164 189 9,100 49 Climbing Washington Center
Fri 10:29:09 AM 37.3292 -78.6556 20° North 169 194 9,100  Level Washington Center
Fri 10:30:07 AM 37.3753 -78.6392 16° North 169 194 9,100  Level Washington Center
Fri 10:31:07 AM 37.4217 -78.6228 16° North 169 194 9,100 -49 Level Washington Center
Fri 10:32:09 AM 37.4703 -78.6011 19° North 169 194 9,000 -49 Descending Washington Center
Fri 10:33:09 AM 37.5186 -78.5847 15° North 169 194 9,000  Level Washington Center
Fri 10:34:07 AM 37.5650 -78.5681 16° North 169 194 9,000  Level Washington Center
Fri 10:35:08 AM 37.6092 -78.5489 19° North 169 194 9,000  Level Washington Center
Fri 10:36:08 AM 37.6575 -78.5325 15° North 169 194 9,000  Level Washington Center
Fri 10:37:08 AM 37.7039 -78.5131 18° North 169 194 9,000  Level Washington Center
Fri 10:38:09 AM 37.7503 -78.4967 16° North 164 189 9,000  Level Washington Center
Fri 10:39:07 AM 37.7964 -78.4800 16° North 164 189 9,000  Level Washington Center
Fri 10:40:07 AM 37.8428 -78.4633 16° North 164 189 9,000 50 Level Washington Center
Fri 10:41:08 AM 37.8911 -78.4442 17° North 164 189 9,100 49 Climbing Washington Center
Fri 10:42:09 AM 37.9375 -78.4247 18° North 164 189 9,100  Level Washington Center
Fri 10:43:07 AM 37.9817 -78.4056 19° North 169 194 9,100  Level Washington Center
Fri 10:45:12 AM 38.0833 -78.3667 17° North 176 203 9,100  Level Potomac TRACON
Fri 10:46:06 AM 38.1333 -78.3500 15° North 182 209 9,100 -53 Level Potomac TRACON
Fri 10:47:06 AM 38.1667 -78.3333 21° North 187 215 9,000 -50 Descending Potomac TRACON
Fri 10:48:06 AM 38.2167 -78.3167 15° North 181 208 9,000  Level Potomac TRACON
Fri 10:49:01 AM 38.2667 -78.3000 15° North 181 208 9,000 52 Level Potomac TRACON
Fri 10:50:01 AM 38.3167 -78.2667 28° Northeast 179 206 9,100  Climbing Potomac TRACON
Fri 10:51:01 AM 38.3667 -78.2500 15° North 181 208 9,000 -50 Descending Potomac TRACON
Fri 10:52:01 AM 38.4000 -78.2333 21° North 180 207 9,000 50 Level Potomac TRACON
Fri 10:53:01 AM 38.4500 -78.2167 15° North 178 205 9,100 50 Climbing Potomac TRACON
Fri 10:54:01 AM 38.5000 -78.2000 15° North 178 205 9,100  Level Potomac TRACON
Fri 10:55:01 AM 38.5500 -78.1833 15° North 180 207 9,100 -50 Level Potomac TRACON
Fri 10:56:01 AM 38.6000 -78.1667 15° North 178 205 9,000 -52 Descending Potomac TRACON
Fri 10:56:56 AM 38.6333 -78.1500 21° North 176 203 9,000 -209 Level Potomac TRACON
Fri 10:57:56 AM 38.6833 -78.1167 27° Northeast 189 217 8,600 -550 Descending Potomac TRACON
Fri 10:58:56 AM 38.7500 -78.1000 11° North 195 224 7,900 -750 Descending Potomac TRACON
Fri 10:59:56 AM 38.8000 -78.1000 360° North 198 228 7,100 -450 Descending Potomac TRACON
Fri 11:00:56 AM 38.8500 -78.1000 360° North 181 208 7,000 -50 Descending Potomac TRACON
Fri 11:01:56 AM 38.9000 -78.1000 360° North 162 186 7,000  Level Potomac TRACON
Fri 11:02:57 AM 38.9333 -78.1000 360° North 167 192 7,000 50 Level Potomac TRACON
Fri 11:03:57 AM 38.9833 -78.1000 360° North 163 188 7,100  Climbing Potomac TRACON
Fri 11:04:51 AM 39.0167 -78.1000 360° North 168 193 7,000 -53 Descending Potomac TRACON
Fri 11:05:51 AM 39.0667 -78.1000 360° North 166 191 7,000 33 Level Potomac TRACON
Fri 11:07:52 AM 39.1500 -78.0667 33° Northeast 170 196 7,100  Climbing Potomac TRACON
Fri 11:08:52 AM 39.2000 -78.0167 38° Northeast 171 197 7,000 -50 Descending Potomac TRACON
Fri 11:09:52 AM 39.2333 -77.9833 38° Northeast 171 197 7,000  Level Potomac TRACON
Fri 11:10:53 AM 39.2667 -77.9500 38° Northeast 168 193 7,000  Level Potomac TRACON
Fri 11:11:53 AM 39.3167 -77.9167 27° Northeast 174 200 7,000  Level Potomac TRACON
Fri 11:12:53 AM 39.3500 -77.8833 38° Northeast 178 205 7,000  Level Potomac TRACON
Fri 11:13:53 AM 39.4000 -77.8500 27° Northeast 172 198 7,000  Level Potomac TRACON
Fri 11:14:53 AM 39.4333 -77.8167 38° Northeast 171 197 7,000  Level Potomac TRACON
Fri 11:15:53 AM 39.4833 -77.8000 14° North 172 198 7,000  Level Potomac TRACON
Fri 11:16:53 AM 39.5167 -77.7833 21° North 168 193 7,000  Level Potomac TRACON
Fri 11:17:53 AM 39.5667 -77.7500 27° Northeast 172 198 7,000  Level Potomac TRACON
Fri 11:18:54 AM 39.6167 -77.7333 14° North 172 198 7,000  Level Potomac TRACON
Fri 11:19:54 AM 39.6500 -77.7000 38° Northeast 168 193 7,000  Level Potomac TRACON
Fri 11:20:54 AM 39.7000 -77.6833 14° North 171 197 7,000  Level Potomac TRACON
Fri 11:21:54 AM 39.7500 -77.6667 14° North 170 196 7,000  Level Potomac TRACON
Fri 11:36:08 AM 40.3611 -77.3222 23° Northeast 167 192 7,000  Level New York Center
Fri 11:37:00 AM 40.4090 -77.2808 23° Northeast  Level FlightAware Approximate
Fri 11:37:06 AM 40.4083 -77.2967 22° Northeast 187 215 7,000  Level New York Center
Fri 11:38:00 AM 40.4530 -77.2561 23° Northeast  Level FlightAware Approximate
Fri 11:38:08 AM 40.4472 -77.2731 25° Northeast 173 199 7,000  Level New York Center
Fri 11:39:00 AM 40.4969 -77.2313 23° Northeast  Level FlightAware Approximate
Fri 11:39:07 AM 40.4944 -77.2475 22° Northeast 167 192 7,000  Level New York Center
Fri 11:40:00 AM 40.5409 -77.2065 23° Northeast  Level FlightAware Approximate
Fri 11:40:08 AM 40.5331 -77.2267 22° Northeast 162 186 7,000  Level New York Center
Fri 11:41:06 AM 40.5803 -77.2011 22° Northeast 162 186 7,000  Level New York Center
Fri 11:42:07 AM 40.6192 -77.1800 22° Northeast 162 186 7,000  Level New York Center
Fri 11:43:07 AM 40.6706 -77.1519 22° Northeast 162 186 7,000  Level New York Center
Fri 11:44:06 AM 40.7117 -77.1256 26° Northeast 162 186 7,000  Level New York Center
Fri 11:45:06 AM 40.7567 -77.1025 21° North 162 186 7,000  Level New York Center
Fri 11:46:06 AM 40.7994 -77.0789 23° Northeast 162 186 7,000  Level New York Center
Fri 11:47:07 AM 40.8425 -77.0528 25° Northeast 162 186 7,000  Level New York Center
Fri 11:48:07 AM 40.8856 -77.0292 23° Northeast 162 186 7,000  Level New York Center
Fri 11:49:08 AM 40.9283 -77.0058 22° Northeast 162 186 7,000  Level New York Center
Fri 11:50:07 AM 40.9733 -76.9822 22° Northeast 162 186 7,000  Level New York Center
Fri 11:51:07 AM 41.0164 -76.9589 22° Northeast 162 186 7,000  Level New York Center
Fri 11:52:06 AM 41.0614 -76.9325 24° Northeast 162 186 7,000  Level New York Center
Fri 11:53:06 AM 41.1022 -76.9089 24° Northeast 162 186 7,000  Level New York Center
Fri 11:54:06 AM 41.1453 -76.8822 25° Northeast 162 186 7,000  Level New York Center
Fri 11:55:06 AM 41.1903 -76.8589 21° North 162 186 7,000  Level New York Center
Fri 11:56:07 AM 41.2333 -76.8350 23° Northeast 162 186 7,000  Level New York Center
Fri 11:57:08 AM 41.2767 -76.8003 31° Northeast 162 186 7,000  Level New York Center
Fri 11:58:07 AM 41.3119 -76.7619 39° Northeast 167 192 7,000  Level New York Center
Fri 11:59:06 AM 41.3533 -76.7269 32° Northeast 167 192 7,000  Level New York Center
Fri 12:00:09 PM 41.3903 -76.6972 31° Northeast 167 192 7,000  Level New York Center
Fri 12:01:07 PM 41.4339 -76.6539 37° Northeast 174 200 7,000  Level New York Center
Fri 12:02:06 PM 41.4733 -76.6186 34° Northeast 174 200 7,000  Level New York Center
Fri 12:03:08 PM 41.5100 -76.5886 31° Northeast 174 200 7,000  Level New York Center
Fri 12:04:06 PM 41.5517 -76.5506 34° Northeast 174 200 7,000 -250 Level New York Center
Fri 12:05:08 PM 41.5972 -76.5128 32° Northeast 174 200 6,500 -590 Descending New York Center
Fri 12:06:08 PM 41.6347 -76.4689 41° Northeast 174 200 5,800 -706 Descending New York Center
Fri 12:07:07 PM 41.6739 -76.4306 36° Northeast 179 206 5,100 -403 Descending New York Center
Fri 12:08:07 PM 41.7069 -76.3944 39° Northeast 179 206 5,000 -248 Descending New York Center
Fri 12:09:08 PM 41.7439 -76.3614 34° Northeast 168 193 4,600 -400 Descending New York Center
Fri 12:10:07 PM 41.7889 -76.3319 26° Northeast 161 185 4,200 -305 Descending New York Center
Fri 12:11:06 PM 41.8275 -76.3100 23° Northeast 156 180 4,000 -100 Descending New York Center
Fri 12:12:07 PM 41.8642 -76.2853 27° Northeast 151 174 4,000  Level New York Center
Fri 12:13:08 PM 41.8947 -76.2517 39° Northeast 151 174 4,000 -150 Level New York Center
Fri 12:14:07 PM 41.9278 -76.2097 43° Northeast 146 168 3,700 -300 Descending New York Center
Fri 12:15:08 PM 41.9592 -76.1650 47° Northeast 146 168 3,400 -403 Descending New York Center
Fri 12:16:06 PM 41.9897 -76.1339 37° Northeast 153 176 2,900 -517 Descending New York Center
Fri 12:19:00 PM 42.0667 -76.0833 37° Northeast  Level FlightAware Approximate
Fri 12:26:00 PM 42.0785 -76.0963 37° Northeast  Level Estimated
Fri 12:27:00 PM 42.0785 -76.0963 37° Northeast  Level Estimated
Fri 12:28:00 PM 42.0785 -76.0963 37° Northeast  Level Estimated
Fri 12:29:00 PM 42.0785 -76.0963 37° Northeast  Level Estimated
Fri 12:30:00 PM 42.0785 -76.0963 37° Northeast  Level Estimated
Fri 12:31:00 PM 42.0785 -76.0963 37° Northeast  Level Estimated
Fri 12:32:00 PM 42.0785 -76.0963 37° Northeast  Level Estimated
Fri 12:33:00 PM 42.0785 -76.0963 37° Northeast  Level Estimated
Fri 12:34:00 PM 42.0785 -76.0963 37° Northeast  Level Estimated
Fri 12:35:00 PM 42.0785 -76.0963 37° Northeast  Level Estimated

Login

Don't have an account? Register now (free) for customized features, flight alerts, and more!